Time;durP1;ratioP1;P1;durP2;ratioP2;P2;SDS_P1;SDS_P2;PMS_P1;PMS_P2;Temp;Humidity;BMP_temperature;BMP_pressure;BME280_temperature;BME280_humidity;BME280_pressure;Samples;Min_cycle;Max_cycle;Signal;HPM_P1;HPM_P2
2023/04/27 10:20:30;;;;;;;4.30;2.90;;;;;;;8.14;100.00;100184.83;102867;1291;601131;-90
2023/04/27 10:23:23;;;;;;;5.40;3.10;;;;;;;8.32;100.00;100186.70;105215;1269;64771;-90
2023/04/27 10:26:11;;;;;;;;;;;;;;;8.49;100.00;100194.20;105152;1271;62160;-90
2023/04/27 10:29:07;;;;;;;5.90;2.70;;;;;;;8.59;100.00;100200.52;105033;1274;74313;-90
2023/04/27 10:31:54;;;;;;;3.90;2.60;;;;;;;8.75;100.00;100206.61;105300;1268;70262;-89
2023/04/27 10:34:44;;;;;;;4.60;2.70;;;;;;;8.76;100.00;100208.30;105156;1265;162113;-90
2023/04/27 10:37:40;;;;;;;3.60;3.10;;;;;;;8.78;100.00;100211.15;105348;1266;64407;-90
2023/04/27 10:40:34;;;;;;;4.80;3.20;;;;;;;8.87;100.00;100211.52;105372;1270;61202;-91
2023/04/27 10:43:26;;;;;;;3.60;2.90;;;;;;;8.87;100.00;100216.04;106882;1265;73095;-90
2023/04/27 10:46:14;;;;;;;4.00;2.80;;;;;;;8.91;100.00;100214.18;105439;1264;70962;-90
2023/04/27 10:49:03;;;;;;;4.10;2.60;;;;;;;8.95;100.00;100219.58;105118;1266;71918;-91
2023/04/27 10:51:51;;;;;;;4.90;2.90;;;;;;;8.98;100.00;100221.09;105232;1265;63807;-90
2023/04/27 10:54:44;;;;;;;2.80;2.00;;;;;;;9.03;100.00;100215.48;105175;1271;62322;-89
2023/04/27 10:57:32;;;;;;;2.60;1.80;;;;;;;9.04;100.00;100218.90;105488;1271;74519;-91
2023/04/27 11:00:27;;;;;;;2.10;1.90;;;;;;;9.01;100.00;100217.93;105223;1265;70732;-90
2023/04/27 11:03:18;;;;;;;2.00;1.80;;;;;;;9.03;100.00;100212.53;105312;1265;73673;-90
2023/04/27 11:06:06;;;;;;;2.00;1.70;;;;;;;9.03;100.00;100212.86;105075;1274;62661;-90
2023/04/27 11:08:54;;;;;;;1.70;1.40;;;;;;;9.10;100.00;100211.70;105369;1266;60375;-90
2023/04/27 11:11:44;;;;;;;2.60;2.30;;;;;;;9.17;100.00;100214.47;105153;1269;73609;-90
2023/04/27 11:14:34;;;;;;;2.20;2.00;;;;;;;9.25;100.00;100214.73;105361;1268;70012;-90
2023/04/27 11:17:28;;;;;;;2.40;2.00;;;;;;;9.25;100.00;100216.20;105375;1270;74831;-90
2023/04/27 11:20:24;;;;;;;2.10;1.60;;;;;;;9.22;100.00;100214.08;105301;1266;64906;-89
2023/04/27 11:23:27;;;;;;;2.50;1.60;;;;;;;9.27;100.00;100210.96;105352;1266;59544;-89
2023/04/27 11:26:25;;;;;;;5.10;2.30;;;;;;;9.25;100.00;100206.44;105318;1270;75168;-91
2023/04/27 11:29:14;;;;;;;2.10;1.50;;;;;;;9.28;100.00;100204.73;105470;1271;68810;-89
2023/04/27 11:32:03;;;;;;;3.10;2.50;;;;;;;9.37;100.00;100207.81;105403;1265;74578;-89
2023/04/27 11:34:52;;;;;;;9.60;6.40;;;;;;;9.59;100.00;100207.16;105223;1266;62980;-89
2023/04/27 11:37:55;;;;;;;19.30;10.80;;;;;;;10.00;100.00;100204.17;105167;1266;61767;-90
2023/04/27 11:40:45;;;;;;;7.20;5.50;;;;;;;10.85;100.00;100199.55;105275;1270;73966;-90
2023/04/27 11:43:33;;;;;;;4.80;3.90;;;;;;;10.71;100.00;100196.73;105417;1266;68903;-89
2023/04/27 11:46:21;;;;;;;2.40;2.20;;;;;;;10.78;100.00;100197.10;105439;1265;71300;-90
2023/04/27 11:49:09;;;;;;;3.20;2.90;;;;;;;10.69;100.00;100195.92;105450;1267;64357;-89
2023/04/27 11:51:57;;;;;;;7.70;5.30;;;;;;;10.59;100.00;100197.66;105304;1270;62718;-88
2023/04/27 11:54:49;;;;;;;6.90;4.70;;;;;;;10.61;100.00;100197.68;105537;1266;74722;-88
2023/04/27 11:57:38;;;;;;;8.90;4.70;;;;;;;10.97;100.00;100194.23;105252;1265;67954;-89
2023/04/27 12:00:25;;;;;;;7.30;3.50;;;;;;;11.01;100.00;100195.15;105121;1266;75269;-89
2023/04/27 12:03:13;;;;;;;5.90;5.10;;;;;;;10.99;100.00;100194.08;105165;1266;61345;-89
2023/04/27 12:06:02;;;;;;;5.10;4.10;;;;;;;10.97;100.00;100194.70;105092;1271;61629;-89
2023/04/27 12:09:10;;;;;;;7.60;4.40;;;;;;;10.91;100.00;100192.29;105860;1270;74439;-89
2023/04/27 12:11:58;;;;;;;7.50;5.50;;;;;;;10.92;100.00;100196.77;105460;1265;69268;-89
2023/04/27 12:14:46;;;;;;;4.70;3.40;;;;;;;10.92;100.00;100195.13;105420;1266;74393;-89
2023/04/27 12:17:34;;;;;;;4.30;3.00;;;;;;;10.90;100.00;100195.57;105135;1263;62402;-89
2023/04/27 12:20:22;;;;;;;4.10;3.30;;;;;;;10.88;100.00;100199.14;105712;1265;62207;-88
2023/04/27 12:23:10;;;;;;;5.50;3.80;;;;;;;10.92;100.00;100202.07;105635;1259;74906;-89
2023/04/27 12:25:58;;;;;;;3.60;2.90;;;;;;;10.96;100.00;100204.39;105710;1259;70651;-89
2023/04/27 12:28:46;;;;;;;3.20;2.90;;;;;;;11.04;100.00;100204.95;105738;1263;74845;-88
2023/04/27 12:31:34;;;;;;;2.70;2.40;;;;;;;11.17;100.00;100208.88;105733;1263;62718;-89
2023/04/27 12:34:22;;;;;;;6.40;4.10;;;;;;;11.22;100.00;100205.10;105612;1260;61450;-89
2023/04/27 12:37:10;;;;;;;8.70;5.60;;;;;;;11.30;100.00;100205.68;105781;1257;74564;-90
2023/04/27 12:39:58;;;;;;;7.60;5.50;;;;;;;11.21;100.00;100203.38;105801;1259;70410;-89
2023/04/27 12:42:46;;;;;;;11.40;5.70;;;;;;;11.17;100.00;100204.16;105678;1259;74587;-89
2023/04/27 12:45:36;;;;;;;5.10;3.30;;;;;;;11.16;100.00;100211.52;105771;1264;63779;-90
2023/04/27 12:48:30;;;;;;;11.30;7.20;;;;;;;11.13;100.00;100210.13;105679;1258;61545;-90
2023/04/27 12:51:18;;;;;;;7.40;4.40;;;;;;;11.35;100.00;100218.15;105701;1263;74327;-90
2023/04/27 12:54:07;;;;;;;5.40;3.60;;;;;;;11.34;100.00;100212.42;105620;1264;68777;-90
2023/04/27 12:56:55;;;;;;;4.00;2.80;;;;;;;11.21;100.00;100213.48;106013;1260;73265;-90
2023/04/27 12:59:43;;;;;;;7.00;3.90;;;;;;;11.19;100.00;100211.86;105794;1262;60007;-90
2023/04/27 13:02:31;;;;;;;7.80;5.00;;;;;;;11.25;100.00;100220.45;105812;1262;61503;-90
2023/04/27 13:05:20;;;;;;;5.90;4.00;;;;;;;11.43;100.00;100218.66;105788;1262;74118;-89
2023/04/27 13:08:09;;;;;;;6.20;4.70;;;;;;;11.38;100.00;100222.44;105748;1257;70648;-91
2023/04/27 13:10:57;;;;;;;5.60;4.20;;;;;;;11.32;100.00;100223.48;105758;1259;74880;-91
2023/04/27 13:13:47;;;;;;;7.20;5.00;;;;;;;11.27;100.00;100231.88;105824;1261;61942;-92
2023/04/27 13:16:35;;;;;;;5.40;4.40;;;;;;;11.17;100.00;100235.79;105882;1257;61788;-92
2023/04/27 13:19:24;;;;;;;8.40;6.60;;;;;;;11.18;100.00;100240.25;105894;1262;74733;-92
2023/04/27 13:22:12;;;;;;;12.90;7.50;;;;;;;11.13;100.00;100245.12;105790;1256;71121;-92
2023/04/27 13:25:00;;;;;;;8.00;6.30;;;;;;;11.11;100.00;100244.11;105836;1256;74357;-94
2023/04/27 13:27:49;;;;;;;10.00;6.90;;;;;;;11.18;100.00;100244.95;105723;1257;60646;-91
2023/04/27 13:30:37;;;;;;;8.90;6.10;;;;;;;11.03;100.00;100246.64;105779;1257;62582;-91
2023/04/27 13:33:25;;;;;;;11.90;7.20;;;;;;;10.83;100.00;100252.27;105854;1255;74937;-92
2023/04/27 13:36:13;;;;;;;10.10;6.40;;;;;;;10.88;100.00;100255.79;105805;1262;68516;-92
2023/04/27 13:39:01;;;;;;;11.10;7.50;;;;;;;11.01;100.00;100253.98;105734;1256;74047;-91
2023/04/27 13:41:49;;;;;;;10.80;7.20;;;;;;;11.07;100.00;100250.26;105867;1256;63691;-91
2023/04/27 13:44:37;;;;;;;10.50;7.90;;;;;;;11.08;100.00;100253.20;105808;1262;59624;-91
2023/04/27 13:47:28;;;;;;;10.00;6.90;;;;;;;11.15;100.00;100254.34;105860;1262;74207;-92
2023/04/27 13:50:16;;;;;;;8.00;6.20;;;;;;;11.14;100.00;100249.05;106054;1261;68617;-92
2023/04/27 13:53:04;;;;;;;7.90;6.20;;;;;;;11.01;100.00;100251.95;105801;1256;73902;-92
2023/04/27 13:55:56;;;;;;;6.90;5.50;;;;;;;11.09;100.00;100258.11;105835;1257;64657;-92
2023/04/27 13:58:48;;;;;;;8.20;6.10;;;;;;;11.21;100.00;100261.78;105831;1260;59682;-92
2023/04/27 14:01:38;;;;;;;9.40;6.40;;;;;;;11.16;100.00;100263.68;105760;1261;74661;-92
2023/04/27 14:04:26;;;;;;;7.90;6.60;;;;;;;11.11;100.00;100264.71;105729;1262;68946;-93
2023/04/27 14:07:15;;;;;;;10.40;7.50;;;;;;;11.08;100.00;100264.74;105797;1262;72943;-93
2023/04/27 14:10:03;;;;;;;11.60;8.00;;;;;;;11.10;100.00;100266.59;105783;1258;63623;-93
2023/04/27 14:12:51;;;;;;;10.20;6.80;;;;;;;10.88;100.00;100274.44;105925;1256;61545;-93
2023/04/27 14:15:40;;;;;;;12.20;8.00;;;;;;;10.93;100.00;100273.23;105928;1257;74979;-89
2023/04/27 14:18:28;;;;;;;9.50;7.30;;;;;;;11.02;100.00;100266.98;105838;1259;70139;-87
2023/04/27 14:21:19;;;;;;;11.00;7.70;;;;;;;11.04;100.00;100270.46;105831;1257;74826;-88
2023/04/27 14:24:07;;;;;;;10.40;7.50;;;;;;;10.97;100.00;100271.79;105784;1257;64155;-88
2023/04/27 14:26:55;;;;;;;17.00;10.20;;;;;;;11.06;100.00;100270.23;105789;1256;61384;-89
2023/04/27 14:29:43;;;;;;;13.60;9.40;;;;;;;11.14;100.00;100271.86;106045;1261;74844;-89
2023/04/27 14:32:31;;;;;;;11.30;7.90;;;;;;;11.09;100.00;100276.94;106093;1260;69969;-86
2023/04/27 14:35:20;;;;;;;13.60;9.00;;;;;;;11.20;100.00;100280.83;105689;1260;72552;-87
2023/04/27 14:38:07;;;;;;;10.10;7.30;;;;;;;11.18;100.00;100281.06;105730;1261;60731;-88
2023/04/27 14:40:55;;;;;;;11.80;8.10;;;;;;;11.28;100.00;100284.20;105731;1257;61316;-88
2023/04/27 14:43:45;;;;;;;13.80;8.70;;;;;;;11.32;100.00;100287.98;105809;1261;75172;-89
2023/04/27 14:46:34;;;;;;;11.80;8.00;;;;;;;11.36;100.00;100288.93;106050;1261;67853;-88
2023/04/27 14:49:21;;;;;;;13.70;8.10;;;;;;;11.35;100.00;100294.10;106010;1257;74129;-89
2023/04/27 14:52:10;;;;;;;15.00;9.50;;;;;;;11.28;100.00;100295.04;105814;1257;63113;-90
2023/04/27 14:54:59;;;;;;;12.20;7.90;;;;;;;11.28;100.00;100301.20;105859;1260;62034;-89
2023/04/27 14:57:47;;;;;;;13.50;9.30;;;;;;;11.20;100.00;100307.30;105952;1260;74355;-88
2023/04/27 15:00:35;;;;;;;14.50;9.00;;;;;;;11.21;100.00;100310.52;105934;1260;69852;-88
2023/04/27 15:03:23;;;;;;;13.80;9.10;;;;;;;11.27;100.00;100306.42;105971;1259;74863;-87
2023/04/27 15:06:12;;;;;;;16.60;11.10;;;;;;;11.13;100.00;100308.34;105902;1258;60551;-87
2023/04/27 15:09:00;;;;;;;16.60;10.80;;;;;;;11.17;100.00;100310.27;105828;1267;62345;-86
2023/04/27 15:11:50;;;;;;;15.40;9.90;;;;;;;11.19;100.00;100310.37;105947;1258;75900;-88
2023/04/27 15:14:48;;;;;;;14.70;10.00;;;;;;;11.25;100.00;100306.00;105925;1258;67480;-87
2023/04/27 15:17:36;;;;;;;19.10;12.10;;;;;;;11.14;100.00;100311.29;105782;1262;73054;-87
2023/04/27 15:20:24;;;;;;;14.00;9.30;;;;;;;11.13;100.00;100314.52;105744;1262;61835;-88
2023/04/27 15:23:12;;;;;;;15.50;11.10;;;;;;;10.94;100.00;100312.92;105731;1257;61173;-87
2023/04/27 15:26:00;;;;;;;17.20;11.00;;;;;;;10.90;100.00;100319.67;105846;1262;76213;-88
2023/04/27 15:28:48;;;;;;;18.70;12.00;;;;;;;10.77;100.00;100320.70;105865;1260;70432;-87
2023/04/27 15:31:36;;;;;;;18.60;11.20;;;;;;;10.65;100.00;100325.52;105809;1262;74465;-87
2023/04/27 15:34:24;;;;;;;21.60;13.30;;;;;;;10.70;100.00;100318.23;105922;1261;64131;-87
2023/04/27 15:37:12;;;;;;;19.50;11.80;;;;;;;10.66;100.00;100315.91;105946;1260;61066;-87
2023/04/27 15:40:01;;;;;;;19.40;12.60;;;;;;;10.56;100.00;100321.98;105845;1257;74775;-87
2023/04/27 15:42:49;;;;;;;20.80;13.70;;;;;;;10.67;100.00;100322.79;105828;1262;70517;-87
2023/04/27 15:45:37;;;;;;;23.00;13.40;;;;;;;10.77;100.00;100318.29;106005;1257;74207;-87
2023/04/27 15:48:25;;;;;;;18.00;12.10;;;;;;;10.88;100.00;100316.91;105910;1261;65807;-86
2023/04/27 15:51:13;;;;;;;20.20;12.80;;;;;;;10.89;100.00;100315.54;105935;1262;60421;-87
2023/04/27 15:54:02;;;;;;;21.00;13.50;;;;;;;10.74;100.00;100317.00;105891;1260;75894;-86
2023/04/27 15:56:50;;;;;;;22.20;13.60;;;;;;;10.61;100.00;100316.98;106001;1260;68070;-86
2023/04/27 15:59:38;;;;;;;21.30;15.00;;;;;;;10.70;100.00;100320.09;105728;1260;73747;-87
2023/04/27 16:02:26;;;;;;;20.70;13.80;;;;;;;10.78;100.00;100324.46;105914;1260;62109;-86
2023/04/27 16:05:15;;;;;;;22.60;14.70;;;;;;;10.75;100.00;100325.20;105902;1263;61516;-87
2023/04/27 16:08:03;;;;;;;21.80;13.10;;;;;;;10.86;100.00;100326.59;105876;1258;73348;-88
2023/04/27 16:10:51;;;;;;;22.10;14.60;;;;;;;10.93;100.00;100323.93;105835;1259;70177;-86
2023/04/27 16:13:39;;;;;;;18.90;12.50;;;;;;;11.02;100.00;100327.75;105937;1260;75685;-88
2023/04/27 16:16:27;;;;;;;24.40;15.00;;;;;;;10.94;100.00;100335.17;105898;1262;63764;-86
2023/04/27 16:19:17;;;;;;;31.20;19.30;;;;;;;10.79;100.00;100340.15;105803;1263;60894;-86
2023/04/27 16:22:05;;;;;;;30.40;19.50;;;;;;;10.75;100.00;100338.32;105954;1258;76316;-86
2023/04/27 16:24:53;;;;;;;30.10;20.10;;;;;;;10.85;100.00;100338.48;106078;1254;71043;-87
2023/04/27 16:27:42;;;;;;;27.60;19.50;;;;;;;10.84;100.00;100339.45;105883;1257;74447;-86
2023/04/27 16:30:30;;;;;;;26.10;17.70;;;;;;;10.71;100.00;100342.27;105923;1257;61256;-86
2023/04/27 16:33:19;;;;;;;23.60;16.00;;;;;;;10.65;100.00;100343.57;105866;1257;61937;-86
2023/04/27 16:36:09;;;;;;;22.50;14.50;;;;;;;10.55;100.00;100353.14;105758;1254;74210;-87
2023/04/27 16:38:57;;;;;;;26.60;16.30;;;;;;;10.73;100.00;100353.59;105840;1258;70734;-87
2023/04/27 16:41:45;;;;;;;26.00;17.50;;;;;;;10.89;100.00;100355.13;105929;1262;73987;-87
2023/04/27 16:44:33;;;;;;;27.40;18.20;;;;;;;10.72;100.00;100358.02;105707;1257;64085;-87
2023/04/27 16:47:21;;;;;;;32.80;20.10;;;;;;;10.52;100.00;100366.92;105827;1258;61898;-86
2023/04/27 16:50:09;;;;;;;21.00;15.00;;;;;;;10.73;100.00;100366.10;105935;1256;75673;-86
2023/04/27 16:53:08;;;;;;;17.80;13.30;;;;;;;10.72;100.00;100368.55;105830;1261;70425;-87
2023/04/27 16:55:58;;;;;;;19.40;13.10;;;;;;;10.78;100.00;100371.52;106020;1254;74646;-85
2023/04/27 16:58:46;;;;;;;18.70;11.20;;;;;;;10.83;100.00;100375.88;106117;1258;60911;-86
2023/04/27 17:01:34;;;;;;;15.60;11.00;;;;;;;10.81;100.00;100379.94;106390;1260;60370;-85
2023/04/27 17:04:22;;;;;;;21.00;12.80;;;;;;;10.85;100.00;100379.05;106103;1259;74814;-86
2023/04/27 17:07:10;;;;;;;13.30;9.30;;;;;;;10.92;100.00;100384.02;105783;1260;67489;-87
2023/04/27 17:09:58;;;;;;;19.00;11.20;;;;;;;10.80;100.00;100383.70;106181;1254;73079;-87
2023/04/27 17:12:46;;;;;;;18.20;12.40;;;;;;;10.85;100.00;100394.34;106026;1254;62892;-87
2023/04/27 17:15:34;;;;;;;19.70;11.20;;;;;;;11.08;100.00;100397.42;106114;1254;62040;-86
2023/04/27 17:18:22;;;;;;;17.80;11.80;;;;;;;11.17;100.00;100398.78;106108;1256;76866;-86
2023/04/27 17:21:10;;;;;;;17.00;10.90;;;;;;;11.07;100.00;100403.65;106161;1254;70499;-86
2023/04/27 17:23:58;;;;;;;14.90;10.20;;;;;;;11.09;100.00;100407.14;106133;1254;75178;-86
2023/04/27 17:26:47;;;;;;;18.40;11.90;;;;;;;10.93;100.00;100410.32;106006;1261;63186;-85
2023/04/27 17:29:36;;;;;;;15.10;11.10;;;;;;;10.85;100.00;100413.86;105871;1257;61089;-86
2023/04/27 17:32:24;;;;;;;13.10;9.30;;;;;;;10.64;100.00;100417.40;105958;1260;74958;-86
2023/04/27 17:35:12;;;;;;;14.10;9.60;;;;;;;10.78;100.00;100416.52;105941;1254;70379;-85
2023/04/27 17:38:00;;;;;;;17.40;12.20;;;;;;;11.02;100.00;100415.85;105980;1254;73717;-85
2023/04/27 17:40:48;;;;;;;19.00;12.90;;;;;;;10.88;100.00;100418.10;106022;1255;61811;-86
2023/04/27 17:43:36;;;;;;;14.40;10.00;;;;;;;10.66;100.00;100421.40;106026;1257;62080;-85
2023/04/27 17:46:24;;;;;;;12.40;8.90;;;;;;;10.66;100.00;100428.45;106081;1254;74411;-85
2023/04/27 17:49:13;;;;;;;16.10;10.70;;;;;;;10.62;100.00;100434.58;106342;1258;69627;-86
2023/04/27 17:52:02;;;;;;;8.70;6.90;;;;;;;10.67;100.00;100431.98;106004;1260;75318;-87
2023/04/27 17:54:50;;;;;;;12.50;8.50;;;;;;;10.47;100.00;100437.11;106333;1258;61120;-85
2023/04/27 17:57:39;;;;;;;9.40;7.80;;;;;;;10.50;100.00;100436.38;105893;1259;61463;-88
2023/04/27 18:00:27;;;;;;;16.50;10.70;;;;;;;10.68;100.00;100438.55;105940;1253;73841;-88
2023/04/27 18:03:15;;;;;;;11.50;8.20;;;;;;;10.78;100.00;100441.40;106020;1254;71099;-87
2023/04/27 18:06:04;;;;;;;11.30;8.30;;;;;;;10.73;100.00;100443.50;105990;1254;74232;-88
2023/04/27 18:08:52;;;;;;;9.80;6.30;;;;;;;10.52;100.00;100446.81;106000;1254;62932;-88
2023/04/27 18:11:40;;;;;;;9.70;7.10;;;;;;;10.73;100.00;100441.64;106008;1257;62469;-86
2023/04/27 18:14:28;;;;;;;11.60;8.90;;;;;;;10.90;100.00;100444.08;106090;1259;76005;-86
2023/04/27 18:17:16;;;;;;;10.40;6.80;;;;;;;10.93;100.00;100447.66;105950;1260;69613;-86
2023/04/27 18:20:06;;;;;;;11.90;7.40;;;;;;;10.98;100.00;100446.65;105986;1255;74749;-86
2023/04/27 18:22:56;;;;;;;11.40;6.70;;;;;;;11.00;100.00;100453.38;105948;1254;64121;-89
2023/04/27 18:25:44;;;;;;;9.30;6.90;;;;;;;10.94;100.00;100451.77;105975;1260;62315;-88
2023/04/27 18:28:32;;;;;;;12.70;7.90;;;;;;;10.87;100.00;100456.23;105835;1254;74604;-89
2023/04/27 18:31:22;;;;;;;10.40;7.30;;;;;;;10.93;100.00;100456.41;105955;1254;70398;-88
2023/04/27 18:34:10;;;;;;;11.70;7.80;;;;;;;10.88;100.00;100460.20;105893;1259;72496;-88
2023/04/27 18:36:58;;;;;;;12.00;8.80;;;;;;;10.87;100.00;100459.55;105874;1254;63941;-89
2023/04/27 18:39:46;;;;;;;12.40;7.50;;;;;;;10.91;100.00;100464.24;105975;1254;61991;-88
2023/04/27 18:42:34;;;;;;;13.10;8.10;;;;;;;10.84;100.00;100472.64;106012;1260;76057;-88
2023/04/27 18:45:22;;;;;;;10.70;7.20;;;;;;;10.72;100.00;100473.19;105896;1254;71104;-89
2023/04/27 18:48:10;;;;;;;11.90;8.30;;;;;;;10.68;100.00;100475.16;106035;1254;74493;-88
2023/04/27 18:50:58;;;;;;;13.20;9.80;;;;;;;10.82;100.00;100477.08;106046;1258;61420;-89
2023/04/27 18:53:46;;;;;;;13.70;7.60;;;;;;;10.68;100.00;100482.05;105868;1254;63636;-89
2023/04/27 18:56:34;;;;;;;10.50;7.50;;;;;;;10.65;100.00;100484.24;106016;1253;75333;-90
2023/04/27 18:59:22;;;;;;;10.80;7.00;;;;;;;10.36;100.00;100485.75;105893;1260;68620;-88
2023/04/27 19:02:10;;;;;;;9.50;7.40;;;;;;;10.38;100.00;100489.58;105922;1257;74517;-88
2023/04/27 19:04:58;;;;;;;11.90;7.90;;;;;;;10.22;100.00;100493.35;106103;1256;61632;-88
2023/04/27 19:08:00;;;;;;;10.10;7.80;;;;;;;10.17;100.00;100492.10;106072;1253;62032;-88
2023/04/27 19:10:49;;;;;;;12.10;7.50;;;;;;;10.18;100.00;100491.45;106095;1254;75620;-89
2023/04/27 19:13:41;;;;;;;8.80;6.10;;;;;;;10.21;100.00;100490.39;105974;1257;69813;-89
2023/04/27 19:16:29;;;;;;;10.20;8.00;;;;;;;10.06;100.00;100494.24;105985;1254;74547;-89
2023/04/27 19:19:17;;;;;;;13.60;8.50;;;;;;;10.09;100.00;100489.27;106054;1257;60722;-89
2023/04/27 19:22:06;;;;;;;11.10;7.50;;;;;;;10.05;100.00;100490.70;105972;1254;62302;-89
2023/04/27 19:24:55;;;;;;;11.30;7.50;;;;;;;9.96;100.00;100487.98;106078;1254;75777;-89
2023/04/27 19:27:43;;;;;;;10.90;7.60;;;;;;;10.11;100.00;100494.20;106242;1258;68930;-89
2023/04/27 19:30:31;;;;;;;9.40;6.50;;;;;;;10.21;100.00;100491.55;106313;1253;75325;-89
2023/04/27 19:33:20;;;;;;;12.90;7.70;;;;;;;10.26;100.00;100494.28;106509;1256;62217;-87
2023/04/27 19:36:08;;;;;;;11.90;8.20;;;;;;;10.33;100.00;100491.17;106781;1254;62874;-89
2023/04/27 19:38:56;;;;;;;9.50;6.60;;;;;;;10.51;100.00;100492.45;106352;1260;75752;-88
2023/04/27 19:41:44;;;;;;;10.40;7.50;;;;;;;10.34;100.00;100498.21;105960;1257;68792;-89
2023/04/27 19:44:32;;;;;;;10.10;7.00;;;;;;;10.24;100.00;100498.10;106254;1254;74985;-89
2023/04/27 19:47:22;;;;;;;8.00;6.00;;;;;;;10.34;100.00;100503.52;105967;1259;60470;-89
2023/04/27 19:50:11;;;;;;;8.10;6.30;;;;;;;10.25;100.00;100505.04;105979;1253;60424;-89
2023/04/27 19:52:59;;;;;;;8.90;6.90;;;;;;;10.04;100.00;100508.27;105973;1259;75324;-89
2023/04/27 19:55:47;;;;;;;8.00;6.30;;;;;;;10.18;100.00;100511.32;106141;1258;67453;-88
2023/04/27 19:58:36;;;;;;;11.30;7.30;;;;;;;10.20;100.00;100508.33;106044;1257;74156;-90
2023/04/27 20:01:24;;;;;;;11.50;7.30;;;;;;;10.12;100.00;100507.79;106106;1254;63899;-87
2023/04/27 20:04:12;;;;;;;9.80;6.20;;;;;;;10.10;100.00;100508.55;105968;1253;60466;-88
2023/04/27 20:07:01;;;;;;;9.90;7.30;;;;;;;9.87;100.00;100508.34;107713;1253;74133;-88
2023/04/27 20:09:52;;;;;;;14.00;8.30;;;;;;;9.85;100.00;100513.05;106529;1255;70597;-88
2023/04/27 20:12:40;;;;;;;8.80;6.20;;;;;;;9.93;100.00;100506.77;106046;1258;71323;-87
2023/04/27 20:15:43;;;;;;;8.20;5.80;;;;;;;9.96;100.00;100505.34;105997;1259;62522;-87
2023/04/27 20:18:32;;;;;;;11.20;7.40;;;;;;;10.15;100.00;100508.05;105933;1253;61453;-89
2023/04/27 20:21:20;;;;;;;10.10;6.20;;;;;;;10.19;100.00;100511.37;105941;1253;75734;-89
2023/04/27 20:24:08;;;;;;;7.40;6.20;;;;;;;10.09;100.00;100505.27;105725;1260;70287;-88
2023/04/27 20:26:56;;;;;;;8.20;6.00;;;;;;;9.91;100.00;100503.05;105974;1254;74034;-88
2023/04/27 20:29:46;;;;;;;8.20;5.80;;;;;;;9.97;100.00;100503.75;106137;1253;63778;-88
2023/04/27 20:32:35;;;;;;;8.70;6.80;;;;;;;9.79;100.00;100506.81;105929;1254;62184;-84
2023/04/27 20:35:23;;;;;;;10.50;7.40;;;;;;;9.85;100.00;100505.39;105988;1252;72605;-87
2023/04/27 20:38:11;;;;;;;13.40;6.70;;;;;;;9.92;100.00;100507.30;106074;1253;70213;-85
2023/04/27 20:40:59;;;;;;;7.70;5.90;;;;;;;9.80;100.00;100506.86;106081;1254;74171;-88
2023/04/27 20:43:51;;;;;;;9.70;6.10;;;;;;;9.71;100.00;100505.77;105975;1259;62714;-86
2023/04/27 20:46:39;;;;;;;10.40;7.50;;;;;;;9.69;100.00;100507.14;106023;1258;60532;-87
2023/04/27 20:49:27;;;;;;;9.70;7.30;;;;;;;9.81;100.00;100505.89;106277;1257;75375;-88
2023/04/27 20:52:22;;;;;;;8.90;6.80;;;;;;;9.86;100.00;100506.05;106019;1258;70030;-88
2023/04/27 20:55:10;;;;;;;10.60;6.50;;;;;;;9.78;100.00;100497.81;106043;1254;74357;-85
2023/04/27 20:57:58;;;;;;;8.40;6.30;;;;;;;9.83;100.00;100500.86;106061;1254;62222;-85
2023/04/27 21:00:46;;;;;;;11.10;6.70;;;;;;;9.98;100.00;100497.96;105914;1254;61447;-85
2023/04/27 21:03:34;;;;;;;10.20;6.90;;;;;;;10.27;100.00;100499.96;105995;1253;72698;-87
2023/04/27 21:06:22;;;;;;;9.70;7.30;;;;;;;10.41;100.00;100495.85;105897;1260;69849;-87
2023/04/27 21:09:10;;;;;;;10.80;7.30;;;;;;;10.14;100.00;100500.80;105977;1253;73857;-85
2023/04/27 21:11:58;;;;;;;9.50;6.60;;;;;;;9.89;100.00;100498.52;106059;1254;64299;-88
2023/04/27 21:14:46;;;;;;;11.10;7.80;;;;;;;9.84;100.00;100503.38;106530;1253;61109;-88
2023/04/27 21:17:34;;;;;;;13.20;8.50;;;;;;;9.93;100.00;100502.39;105923;1255;74396;-85
2023/04/27 21:20:22;;;;;;;9.70;6.90;;;;;;;9.87;100.00;100498.89;105819;1253;70352;-88
2023/04/27 21:23:13;;;;;;;11.90;7.80;;;;;;;9.80;100.00;100499.98;106058;1253;74132;-85
2023/04/27 21:26:01;;;;;;;12.10;7.80;;;;;;;9.97;100.00;100501.41;105929;1253;64167;-87
2023/04/27 21:28:49;;;;;;;14.30;8.70;;;;;;;9.82;100.00;100497.86;105859;1254;62198;-88
2023/04/27 21:31:37;;;;;;;14.00;9.30;;;;;;;9.85;100.00;100502.11;106003;1254;75767;-87
2023/04/27 21:34:25;;;;;;;12.30;8.20;;;;;;;9.83;100.00;100499.72;105978;1254;70081;-86
2023/04/27 21:37:13;;;;;;;9.90;7.40;;;;;;;9.83;100.00;100494.80;105956;1255;77225;-86
2023/04/27 21:40:02;;;;;;;13.20;7.50;;;;;;;9.90;100.00;100501.20;105899;1252;62525;-85
2023/04/27 21:42:53;;;;;;;13.40;7.70;;;;;;;10.00;100.00;100497.75;106133;1254;62395;-87
2023/04/27 21:45:41;;;;;;;13.60;8.80;;;;;;;9.86;100.00;100501.95;105999;1253;73268;-86
2023/04/27 21:48:29;;;;;;;9.70;7.10;;;;;;;10.05;100.00;100501.63;106023;1253;70607;-88
2023/04/27 21:51:17;;;;;;;8.50;6.40;;;;;;;10.08;100.00;100492.98;105995;1254;75253;-88
2023/04/27 21:54:05;;;;;;;8.80;6.00;;;;;;;10.01;100.00;100493.87;106151;1253;61987;-88
2023/04/27 21:56:53;;;;;;;12.50;8.00;;;;;;;9.98;100.00;100487.76;106067;1258;62530;-88
2023/04/27 21:59:41;;;;;;;11.40;7.50;;;;;;;10.14;100.00;100486.48;106582;1253;75012;-88
2023/04/27 22:02:29;;;;;;;9.70;5.90;;;;;;;9.92;100.00;100478.26;105971;1252;69225;-88
2023/04/27 22:05:19;;;;;;;11.90;8.10;;;;;;;9.91;100.00;100473.46;106038;1254;74648;-85
2023/04/27 22:08:08;;;;;;;8.10;6.00;;;;;;;10.10;100.00;100474.75;106300;1255;62713;-88
2023/04/27 22:10:56;;;;;;;10.30;6.90;;;;;;;9.95;100.00;100474.77;106177;1253;60690;-88
2023/04/27 22:13:44;;;;;;;10.00;6.90;;;;;;;10.07;100.00;100478.20;106136;1257;75147;-88
2023/04/27 22:16:32;;;;;;;11.00;7.20;;;;;;;10.19;100.00;100484.61;105993;1253;70024;-88
2023/04/27 22:19:20;;;;;;;11.50;8.10;;;;;;;10.09;100.00;100483.92;106080;1254;74109;-86
2023/04/27 22:22:08;;;;;;;12.80;9.00;;;;;;;9.93;100.00;100482.95;105970;1255;62424;-85
2023/04/27 22:24:56;;;;;;;12.30;7.10;;;;;;;10.08;100.00;100479.48;106255;1253;61372;-85
2023/04/27 22:27:44;;;;;;;9.20;7.00;;;;;;;9.83;100.00;100478.65;106009;1258;75138;-87
2023/04/27 22:30:33;;;;;;;11.60;7.80;;;;;;;9.79;100.00;100480.79;105961;1254;68123;-84
2023/04/27 22:33:21;;;;;;;11.90;8.10;;;;;;;9.89;100.00;100480.56;106112;1257;228670;-88
2023/04/27 22:36:10;;;;;;;10.90;7.60;;;;;;;10.03;100.00;100486.27;105879;1253;61587;-84
2023/04/27 22:38:58;;;;;;;13.10;8.20;;;;;;;10.10;100.00;100479.83;106174;1253;60515;-84
2023/04/27 22:41:46;;;;;;;10.90;7.10;;;;;;;10.15;100.00;100478.67;106066;1253;76320;-85
2023/04/27 22:44:34;;;;;;;8.90;6.50;;;;;;;10.03;100.00;100478.20;106036;1253;70763;-88
2023/04/27 22:47:24;;;;;;;9.30;7.20;;;;;;;10.17;100.00;100476.64;106089;1254;75025;-88
2023/04/27 22:50:12;;;;;;;9.40;6.90;;;;;;;10.59;100.00;100474.87;106156;1253;64000;-85
2023/04/27 22:53:00;;;;;;;10.70;7.20;;;;;;;10.69;100.00;100479.10;106390;1253;61880;-84
2023/04/27 22:55:48;;;;;;;7.80;5.60;;;;;;;10.71;100.00;100483.18;106013;1253;75218;-85
2023/04/27 22:58:36;;;;;;;11.60;8.20;;;;;;;10.67;100.00;100488.51;105965;1253;70950;-88
2023/04/27 23:01:24;;;;;;;9.70;6.80;;;;;;;10.61;100.00;100490.60;106015;1254;74531;-88